createdAt,value
2022-09-21T00:01:24.328Z,10.90
2022-09-21T00:04:00.128Z,9.80
2022-09-21T00:06:29.729Z,10.80
2022-09-21T00:11:27.045Z,11.10
2022-09-21T00:13:57.815Z,10.70
2022-09-21T00:18:53.140Z,10.80
2022-09-21T00:26:18.612Z,10.30
2022-09-21T00:28:46.814Z,10.30
2022-09-21T00:31:18.267Z,10.30
2022-09-21T00:36:16.651Z,10.10
2022-09-21T00:43:46.529Z,10.00
2022-09-21T00:46:29.470Z,9.90
2022-09-21T00:48:58.043Z,9.90
2022-09-21T00:51:26.183Z,9.70
2022-09-21T00:54:00.797Z,8.60
2022-09-21T00:56:29.047Z,9.70
2022-09-21T01:03:53.537Z,9.60
2022-09-21T01:06:21.627Z,9.60
2022-09-21T01:08:53.481Z,9.50
2022-09-21T01:11:48.117Z,9.50
2022-09-21T01:14:37.042Z,10.30
2022-09-21T01:17:21.737Z,10.20
2022-09-21T01:20:10.145Z,9.20
2022-09-21T01:23:06.808Z,8.40
2022-09-21T01:25:52.435Z,8.80
2022-09-21T01:28:58.559Z,9.50
2022-09-21T01:31:48.575Z,9.20
2022-09-21T01:34:24.459Z,9.10
2022-09-21T01:36:55.345Z,9.10
2022-09-21T01:39:24.702Z,9.10
2022-09-21T01:41:55.086Z,8.10
2022-09-21T01:44:27.426Z,8.80
2022-09-21T01:46:56.628Z,8.90
2022-09-21T01:49:30.254Z,8.80
2022-09-21T01:52:08.110Z,8.80
2022-09-21T01:54:43.408Z,8.80
2022-09-21T01:59:53.484Z,8.60
2022-09-21T02:02:36.627Z,9.00
2022-09-21T02:05:05.151Z,8.50
2022-09-21T02:07:36.901Z,8.50
2022-09-21T02:10:05.902Z,8.40
2022-09-21T02:12:33.140Z,8.50
2022-09-21T02:15:01.717Z,9.70
2022-09-21T02:17:32.228Z,8.50
2022-09-21T02:20:15.356Z,8.60
2022-09-21T02:23:05.376Z,7.00
2022-09-21T02:25:59.237Z,9.30
2022-09-21T02:28:51.628Z,8.30
2022-09-21T02:31:52.098Z,8.40
2022-09-21T02:34:28.413Z,8.40
2022-09-21T02:37:20.908Z,8.30
2022-09-21T02:40:09.687Z,8.30
2022-09-21T02:42:42.289Z,8.20
2022-09-21T02:45:20.780Z,8.10
2022-09-21T02:48:01.501Z,8.40
2022-09-21T02:50:56.909Z,8.10
2022-09-21T02:53:30.681Z,8.60
2022-09-21T02:56:03.880Z,8.00
2022-09-21T02:58:33.060Z,8.90
2022-09-21T03:03:27.481Z,8.40
2022-09-21T03:05:55.357Z,8.00
2022-09-21T03:13:18.859Z,8.80
2022-09-21T03:20:46.054Z,7.80
2022-09-21T03:33:05.909Z,6.50
2022-09-21T03:35:36.069Z,7.70
2022-09-21T03:38:02.886Z,7.50
2022-09-21T03:42:56.974Z,7.70
2022-09-21T03:47:58.613Z,6.30
2022-09-21T03:50:28.693Z,7.60
2022-09-21T03:57:50.995Z,6.50
2022-09-21T04:02:45.207Z,6.40
2022-09-21T04:05:15.232Z,7.60
2022-09-21T04:07:45.675Z,7.30
2022-09-21T04:10:14.662Z,7.60
2022-09-21T04:12:45.958Z,6.50
2022-09-21T04:15:19.485Z,8.30
2022-09-21T04:17:50.219Z,7.80
2022-09-21T04:30:08.467Z,7.90
2022-09-21T04:49:46.504Z,9.30
2022-09-21T04:57:15.023Z,8.10
2022-09-21T05:02:09.129Z,9.10
2022-09-21T05:17:13.189Z,7.80
2022-09-21T05:32:31.332Z,7.40
2022-09-21T05:35:37.641Z,7.50
2022-09-21T05:48:09.740Z,7.50
2022-09-21T05:50:36.550Z,7.80
2022-09-21T05:53:25.577Z,7.60
2022-09-21T05:56:02.978Z,7.40
2022-09-21T05:58:57.264Z,7.60
2022-09-21T06:01:42.193Z,7.70
2022-09-21T06:04:15.437Z,8.50
2022-09-21T06:11:36.878Z,7.00
2022-09-21T06:16:38.614Z,7.30
2022-09-21T06:21:33.320Z,8.50
2022-09-21T06:31:23.189Z,8.80
2022-09-21T06:48:39.019Z,8.30
2022-09-21T06:51:06.780Z,9.80
2022-09-21T06:53:34.690Z,11.40
2022-09-21T06:56:10.769Z,10.10
2022-09-21T07:01:10.615Z,10.30
2022-09-21T07:03:38.796Z,10.40
2022-09-21T07:06:06.765Z,10.50
2022-09-21T07:26:13.287Z,11.60
2022-09-21T07:31:14.230Z,11.90
2022-09-21T07:33:42.107Z,12.00
2022-09-21T07:38:42.662Z,11.80
2022-09-21T07:41:12.212Z,12.40
2022-09-21T07:46:14.982Z,12.60
2022-09-21T07:51:11.630Z,12.90
2022-09-21T07:53:40.486Z,13.20
2022-09-21T07:56:13.101Z,13.10
2022-09-21T08:01:27.323Z,13.50
2022-09-21T08:03:58.300Z,13.50
2022-09-21T08:06:27.495Z,13.80
2022-09-21T08:08:57.692Z,13.90
2022-09-21T08:11:27.573Z,13.90
2022-09-21T08:13:57.788Z,14.10
2022-09-21T08:21:20.610Z,15.10
2022-09-21T08:23:49.238Z,14.60
2022-09-21T08:26:19.480Z,14.70
2022-09-21T08:28:51.266Z,14.20
2022-09-21T08:31:21.441Z,14.80
2022-09-21T08:33:52.628Z,15.00
2022-09-21T08:36:20.106Z,13.70
2022-09-21T08:38:48.107Z,15.20
2022-09-21T08:41:23.819Z,16.80
2022-09-21T08:43:53.977Z,16.00
2022-09-21T08:46:25.141Z,15.70
2022-09-21T08:49:02.551Z,15.80
2022-09-21T08:51:33.172Z,16.10
2022-09-21T08:54:07.532Z,16.20
2022-09-21T08:57:00.474Z,16.40
2022-09-21T09:02:01.596Z,15.90
2022-09-21T09:04:43.808Z,18.10
2022-09-21T09:07:36.090Z,17.00
2022-09-21T09:10:15.414Z,17.00
2022-09-21T09:13:16.682Z,17.10
2022-09-21T09:16:08.082Z,17.40
2022-09-21T09:18:51.498Z,17.20
2022-09-21T09:24:06.785Z,19.20
2022-09-21T09:26:42.686Z,18.30
2022-09-21T09:29:33.459Z,18.50
2022-09-21T09:32:01.771Z,18.70
2022-09-21T09:34:43.189Z,18.90
2022-09-21T09:37:17.816Z,19.00
2022-09-21T09:39:54.956Z,20.50
2022-09-21T09:42:28.390Z,20.50
2022-09-21T09:45:18.477Z,19.50
2022-09-21T09:50:34.267Z,21.20
2022-09-21T09:53:10.513Z,20.00
2022-09-21T09:55:40.702Z,19.90
2022-09-21T09:58:23.656Z,20.40
2022-09-21T10:00:57.695Z,20.50
2022-09-21T10:03:27.521Z,20.80
2022-09-21T10:08:36.958Z,19.60
2022-09-21T10:11:04.310Z,19.80
2022-09-21T10:13:34.345Z,20.20
2022-09-21T10:16:17.809Z,22.10
2022-09-21T10:18:58.935Z,21.00
2022-09-21T10:21:38.024Z,21.20
2022-09-21T10:24:13.194Z,21.60
2022-09-21T10:26:48.826Z,21.40
2022-09-21T10:29:18.718Z,21.70
2022-09-21T10:32:00.847Z,22.00
2022-09-21T10:34:30.426Z,23.10
2022-09-21T10:37:00.603Z,22.30
2022-09-21T10:39:34.226Z,22.20
2022-09-21T10:42:06.151Z,21.30
2022-09-21T10:44:40.136Z,22.10
2022-09-21T10:47:43.366Z,22.70
2022-09-21T10:50:36.998Z,23.10
2022-09-21T10:53:09.399Z,23.00
2022-09-21T10:55:58.443Z,22.70
2022-09-21T10:58:34.826Z,22.20
2022-09-21T11:01:21.468Z,22.20
2022-09-21T11:04:17.482Z,22.90
2022-09-21T11:06:49.142Z,22.40
2022-09-21T11:11:53.320Z,22.10
2022-09-21T11:14:57.958Z,24.20
2022-09-21T11:17:27.848Z,23.10
2022-09-21T11:22:32.662Z,22.40
2022-09-21T11:25:36.639Z,22.70
2022-09-21T11:28:18.213Z,23.00
2022-09-21T11:31:06.806Z,23.50
2022-09-21T11:33:45.796Z,23.10
2022-09-21T11:38:54.609Z,23.40
2022-09-21T11:41:37.144Z,23.30
2022-09-21T11:44:32.251Z,22.90
2022-09-21T11:47:24.738Z,22.60
2022-09-21T11:50:31.842Z,22.70
2022-09-21T11:53:26.300Z,23.00
2022-09-21T11:56:24.497Z,22.80
2022-09-21T11:59:25.224Z,23.70
2022-09-21T12:02:17.053Z,24.30
2022-09-21T12:05:06.939Z,24.30
2022-09-21T12:07:56.645Z,25.20
2022-09-21T12:10:38.485Z,25.70
2022-09-21T12:13:39.109Z,26.40
2022-09-21T12:16:11.762Z,27.20
2022-09-21T12:18:45.432Z,28.30
2022-09-21T12:21:29.844Z,27.00
2022-09-21T12:24:02.375Z,27.80
2022-09-21T12:26:39.067Z,30.10
2022-09-21T12:29:31.619Z,30.90
2022-09-21T12:32:24.183Z,27.70
2022-09-21T12:35:13.247Z,29.30
2022-09-21T12:40:31.918Z,29.70
2022-09-21T12:43:26.809Z,31.30
2022-09-21T12:45:57.447Z,31.80
2022-09-21T12:48:30.221Z,31.60
2022-09-21T12:51:06.365Z,32.60
2022-09-21T12:53:38.466Z,31.80
2022-09-21T12:56:30.195Z,31.10
2022-09-21T12:59:05.187Z,30.20
2022-09-21T13:01:57.800Z,27.40
2022-09-21T13:04:27.920Z,27.60
2022-09-21T13:07:16.593Z,26.00
2022-09-21T13:09:46.300Z,25.80
2022-09-21T13:12:20.296Z,24.50
2022-09-21T13:14:51.676Z,24.80
2022-09-21T13:17:29.260Z,24.60
2022-09-21T13:20:22.313Z,24.30
2022-09-21T13:25:24.789Z,23.70
2022-09-21T13:28:09.882Z,23.50
2022-09-21T13:31:18.507Z,22.60
2022-09-21T13:34:30.518Z,24.20
2022-09-21T13:37:14.591Z,22.90
2022-09-21T13:40:02.775Z,21.30
2022-09-21T13:42:32.849Z,23.80
2022-09-21T13:45:26.033Z,22.40
2022-09-21T13:47:57.761Z,21.80
2022-09-21T13:50:27.001Z,20.50
2022-09-21T13:52:59.454Z,21.60
2022-09-21T13:55:35.784Z,20.90
2022-09-21T13:58:19.932Z,24.30
2022-09-21T14:00:55.248Z,26.70
2022-09-21T14:03:32.809Z,29.00
2022-09-21T14:06:24.524Z,31.70
2022-09-21T14:08:54.840Z,30.70
2022-09-21T14:11:38.600Z,31.90
2022-09-21T14:14:12.166Z,32.90
2022-09-21T14:16:39.899Z,33.40
2022-09-21T14:19:18.792Z,33.50
2022-09-21T14:22:04.316Z,35.80
2022-09-21T14:24:42.114Z,34.40
2022-09-21T14:27:48.356Z,35.00
2022-09-21T14:30:26.344Z,35.30
2022-09-21T14:33:20.727Z,33.30
2022-09-21T14:35:48.893Z,34.60
2022-09-21T14:38:34.598Z,34.80
2022-09-21T14:41:07.481Z,35.20
2022-09-21T14:43:37.417Z,35.10
2022-09-21T14:46:20.877Z,36.80
2022-09-21T14:48:58.585Z,37.10
2022-09-21T14:51:47.282Z,37.70
2022-09-21T14:54:35.016Z,37.70
2022-09-21T14:57:20.573Z,37.80
2022-09-21T15:00:05.021Z,37.70
2022-09-21T15:02:37.724Z,34.00
2022-09-21T15:05:13.520Z,34.80
2022-09-21T15:08:19.400Z,31.80
2022-09-21T15:11:04.851Z,30.00
2022-09-21T15:14:11.546Z,30.30
2022-09-21T15:16:47.167Z,28.20
2022-09-21T15:19:16.350Z,27.30
2022-09-21T15:21:46.483Z,27.20
2022-09-21T15:24:31.242Z,26.20
2022-09-21T15:27:16.176Z,25.70
2022-09-21T15:29:49.202Z,24.30
2022-09-21T15:32:46.742Z,25.30
2022-09-21T15:40:26.182Z,27.10
2022-09-21T15:43:06.616Z,28.40
2022-09-21T15:45:55.747Z,30.80
2022-09-21T15:48:34.189Z,33.00
2022-09-21T15:51:39.687Z,32.10
2022-09-21T15:54:14.656Z,33.30
2022-09-21T15:56:44.570Z,34.00
2022-09-21T15:59:18.116Z,34.70
2022-09-21T16:01:50.729Z,35.10
2022-09-21T16:04:21.938Z,35.50
2022-09-21T16:07:04.712Z,35.70
2022-09-21T16:09:42.743Z,36.10
2022-09-21T16:12:31.956Z,36.20
2022-09-21T16:15:07.709Z,36.50
2022-09-21T16:17:38.711Z,36.80
2022-09-21T16:20:23.425Z,36.70
2022-09-21T16:22:54.726Z,36.50
2022-09-21T16:25:37.175Z,35.80
2022-09-21T16:28:16.252Z,36.00
2022-09-21T16:30:51.602Z,34.70
2022-09-21T16:33:35.789Z,35.80
2022-09-21T16:36:04.437Z,33.90
2022-09-21T16:38:32.770Z,34.50
2022-09-21T16:41:01.751Z,34.10
2022-09-21T16:43:29.820Z,33.80
2022-09-21T16:45:56.678Z,33.60
2022-09-21T16:48:23.483Z,33.20
2022-09-21T16:50:53.775Z,32.40
2022-09-21T16:53:22.070Z,31.30
2022-09-21T16:55:49.155Z,27.70
2022-09-21T17:05:42.764Z,24.40
2022-09-21T17:08:10.322Z,22.70
2022-09-21T17:10:44.162Z,22.80
2022-09-21T17:13:11.943Z,21.80
2022-09-21T17:15:44.269Z,21.20
2022-09-21T17:18:12.816Z,20.30
2022-09-21T17:20:42.490Z,21.10
2022-09-21T17:23:09.989Z,20.50
2022-09-21T17:28:14.388Z,19.40
2022-09-21T17:33:10.771Z,19.40
2022-09-21T17:35:40.251Z,19.30
2022-09-21T17:38:13.944Z,19.00
2022-09-21T17:40:42.613Z,18.60
2022-09-21T17:43:25.072Z,18.70
2022-09-21T17:46:04.848Z,18.40
2022-09-21T17:48:34.160Z,17.40
2022-09-21T17:51:01.669Z,17.50
2022-09-21T17:53:35.132Z,17.30
2022-09-21T17:56:14.488Z,18.40
2022-09-21T17:58:58.821Z,16.70
2022-09-21T18:01:42.042Z,17.30
2022-09-21T18:04:11.047Z,17.60
2022-09-21T18:09:05.754Z,16.10
2022-09-21T18:11:58.874Z,16.80
2022-09-21T18:15:04.126Z,18.00
2022-09-21T18:18:09.689Z,16.50
2022-09-21T18:21:02.297Z,17.70
2022-09-21T18:23:37.434Z,15.70
2022-09-21T18:26:04.817Z,15.20
2022-09-21T18:28:46.757Z,15.90
2022-09-21T18:31:41.474Z,17.10
2022-09-21T18:34:15.328Z,15.80
2022-09-21T18:37:18.769Z,14.60
2022-09-21T18:40:02.754Z,15.50
2022-09-21T18:42:51.725Z,15.40
2022-09-21T18:45:37.407Z,15.20
2022-09-21T18:48:28.570Z,15.20
2022-09-21T18:51:33.727Z,14.00
2022-09-21T18:56:39.053Z,15.00
2022-09-21T19:04:02.205Z,14.70
2022-09-21T19:06:45.425Z,14.60
2022-09-21T19:12:01.326Z,13.40
2022-09-21T19:14:34.308Z,14.80
2022-09-21T19:17:39.724Z,15.50
2022-09-21T19:20:10.079Z,14.10
2022-09-21T19:23:17.868Z,15.40
2022-09-21T19:25:51.696Z,12.40
2022-09-21T19:28:44.689Z,13.30
2022-09-21T19:31:14.318Z,13.90
2022-09-21T19:38:45.919Z,14.50
2022-09-21T19:41:35.223Z,13.10
2022-09-21T19:46:41.620Z,13.40
2022-09-21T19:49:19.259Z,13.30
2022-09-21T19:51:50.241Z,12.50
2022-09-21T19:54:41.848Z,13.20
2022-09-21T19:57:39.164Z,13.10
2022-09-21T20:00:16.925Z,13.00
2022-09-21T20:02:53.210Z,13.70
2022-09-21T20:07:54.314Z,14.00
2022-09-21T20:13:16.050Z,11.90
2022-09-21T20:15:49.193Z,13.60
2022-09-21T20:18:53.280Z,12.50
2022-09-21T20:21:22.696Z,12.60
2022-09-21T20:23:58.562Z,12.40
2022-09-21T20:26:27.476Z,12.30
2022-09-21T20:31:23.337Z,12.30
2022-09-21T20:41:13.783Z,12.00
2022-09-21T20:46:11.015Z,12.20
2022-09-21T20:53:36.309Z,11.60
2022-09-21T20:56:03.737Z,11.20
2022-09-21T21:01:04.416Z,11.90
2022-09-21T21:06:18.659Z,11.30
2022-09-21T21:11:14.331Z,10.20
2022-09-21T21:18:40.625Z,11.10
2022-09-21T21:26:29.474Z,10.50
2022-09-21T21:34:03.174Z,9.90
2022-09-21T21:38:57.401Z,12.20
2022-09-21T21:53:40.908Z,10.30
2022-09-21T21:56:10.877Z,10.60
2022-09-21T22:01:19.412Z,10.40
2022-09-21T22:03:46.697Z,11.50
2022-09-21T22:11:09.992Z,10.50
2022-09-21T22:13:38.682Z,9.30
2022-09-21T22:16:08.895Z,10.30
2022-09-21T22:21:05.419Z,10.30
2022-09-21T22:26:11.394Z,13.20
2022-09-21T22:28:39.926Z,10.30
2022-09-21T22:31:13.013Z,9.10
2022-09-21T22:36:11.163Z,9.90
2022-09-21T22:38:42.770Z,11.10
2022-09-21T22:41:13.216Z,9.80
2022-09-21T22:46:07.988Z,10.10
2022-09-21T22:48:35.505Z,11.10
2022-09-21T22:53:31.561Z,9.70
2022-09-21T22:56:18.714Z,9.60
2022-09-21T22:58:49.608Z,9.70
2022-09-21T23:01:26.874Z,9.50
2022-09-21T23:03:59.434Z,9.40
2022-09-21T23:06:28.752Z,8.70
2022-09-21T23:08:57.175Z,9.30
2022-09-21T23:11:27.333Z,9.30
2022-09-21T23:13:55.280Z,9.20
2022-09-21T23:18:50.776Z,8.70
2022-09-21T23:21:20.609Z,9.10
2022-09-21T23:26:20.889Z,9.10
2022-09-21T23:28:56.472Z,8.00
2022-09-21T23:33:53.801Z,9.00
2022-09-21T23:36:26.841Z,9.10
2022-09-21T23:41:33.785Z,9.00
2022-09-21T23:46:34.097Z,9.90
2022-09-21T23:51:30.006Z,7.70
2022-09-21T23:58:53.249Z,8.80
